sensor_id;sensor_type;location;lat;lon;timestamp;temperature;humidity
49711;DHT22;35602;44.534;18.696;2023-06-14T00:03:47;24.60;65.10
49711;DHT22;35602;44.534;18.696;2023-06-14T00:08:49;24.60;65.20
49711;DHT22;35602;44.534;18.696;2023-06-14T00:13:51;24.60;65.20
49711;DHT22;35602;44.534;18.696;2023-06-14T00:18:52;24.60;65.20
49711;DHT22;35602;44.534;18.696;2023-06-14T00:23:53;24.60;65.90
49711;DHT22;35602;44.534;18.696;2023-06-14T00:28:54;24.50;65.20
49711;DHT22;35602;44.534;18.696;2023-06-14T00:33:55;24.60;65.20
49711;DHT22;35602;44.534;18.696;2023-06-14T00:38:56;24.60;65.20
49711;DHT22;35602;44.534;18.696;2023-06-14T00:43:57;24.60;65.20
49711;DHT22;35602;44.534;18.696;2023-06-14T00:48:58;24.60;65.30
49711;DHT22;35602;44.534;18.696;2023-06-14T00:54:01;24.60;65.30
49711;DHT22;35602;44.534;18.696;2023-06-14T00:59:02;24.60;65.30
49711;DHT22;35602;44.534;18.696;2023-06-14T01:04:04;24.60;65.30
49711;DHT22;35602;44.534;18.696;2023-06-14T01:12:49;24.60;65.20
49711;DHT22;35602;44.534;18.696;2023-06-14T01:17:52;24.60;65.30
49711;DHT22;35602;44.534;18.696;2023-06-14T01:22:54;24.50;65.30
49711;DHT22;35602;44.534;18.696;2023-06-14T01:28:01;24.60;65.30
49711;DHT22;35602;44.534;18.696;2023-06-14T01:33:04;24.60;65.30
49711;DHT22;35602;44.534;18.696;2023-06-14T01:38:06;24.60;65.30
49711;DHT22;35602;44.534;18.696;2023-06-14T01:43:10;24.60;65.30
49711;DHT22;35602;44.534;18.696;2023-06-14T01:48:12;24.50;65.20
49711;DHT22;35602;44.534;18.696;2023-06-14T01:53:13;24.50;65.30
49711;DHT22;35602;44.534;18.696;2023-06-14T01:58:15;24.60;65.40
49711;DHT22;35602;44.534;18.696;2023-06-14T02:03:19;24.50;65.30
49711;DHT22;35602;44.534;18.696;2023-06-14T02:08:20;24.50;65.20
49711;DHT22;35602;44.534;18.696;2023-06-14T02:13:20;24.50;65.30
49711;DHT22;35602;44.534;18.696;2023-06-14T02:18:21;24.50;65.30
49711;DHT22;35602;44.534;18.696;2023-06-14T02:23:22;24.50;65.30
49711;DHT22;35602;44.534;18.696;2023-06-14T02:28:23;24.50;65.20
49711;DHT22;35602;44.534;18.696;2023-06-14T02:33:24;24.50;65.30
49711;DHT22;35602;44.534;18.696;2023-06-14T02:38:25;24.50;65.30
49711;DHT22;35602;44.534;18.696;2023-06-14T02:43:28;24.50;65.30
49711;DHT22;35602;44.534;18.696;2023-06-14T02:48:30;24.50;65.30
49711;DHT22;35602;44.534;18.696;2023-06-14T02:53:31;24.50;65.20
49711;DHT22;35602;44.534;18.696;2023-06-14T02:58:32;24.50;65.30
49711;DHT22;35602;44.534;18.696;2023-06-14T03:03:33;24.50;65.30
49711;DHT22;35602;44.534;18.696;2023-06-14T03:08:34;24.50;65.20
49711;DHT22;35602;44.534;18.696;2023-06-14T03:13:39;24.50;65.30
49711;DHT22;35602;44.534;18.696;2023-06-14T03:18:41;24.50;65.30
49711;DHT22;35602;44.534;18.696;2023-06-14T03:23:42;24.50;65.30
49711;DHT22;35602;44.534;18.696;2023-06-14T03:28:47;24.50;65.20
49711;DHT22;35602;44.534;18.696;2023-06-14T03:33:50;24.50;65.00
49711;DHT22;35602;44.534;18.696;2023-06-14T03:38:51;24.50;65.00
49711;DHT22;35602;44.534;18.696;2023-06-14T03:43:52;24.50;65.50
49711;DHT22;35602;44.534;18.696;2023-06-14T03:48:53;24.50;64.80
49711;DHT22;35602;44.534;18.696;2023-06-14T03:53:53;24.50;64.80
49711;DHT22;35602;44.534;18.696;2023-06-14T03:58:55;24.50;64.70
49711;DHT22;35602;44.534;18.696;2023-06-14T04:03:57;24.40;64.50
49711;DHT22;35602;44.534;18.696;2023-06-14T04:08:59;24.50;64.70
49711;DHT22;35602;44.534;18.696;2023-06-14T04:14:05;24.40;64.50
49711;DHT22;35602;44.534;18.696;2023-06-14T04:19:06;24.50;64.60
49711;DHT22;35602;44.534;18.696;2023-06-14T04:24:07;24.50;64.50
49711;DHT22;35602;44.534;18.696;2023-06-14T04:29:14;24.40;64.50
49711;DHT22;35602;44.534;18.696;2023-06-14T04:34:16;24.40;64.40
49711;DHT22;35602;44.534;18.696;2023-06-14T04:39:18;24.40;64.40
49711;DHT22;35602;44.534;18.696;2023-06-14T04:44:19;24.40;64.30
49711;DHT22;35602;44.534;18.696;2023-06-14T04:49:21;24.40;64.30
49711;DHT22;35602;44.534;18.696;2023-06-14T04:54:24;24.50;64.30
49711;DHT22;35602;44.534;18.696;2023-06-14T04:59:27;24.40;64.30
49711;DHT22;35602;44.534;18.696;2023-06-14T05:04:28;24.40;64.30
49711;DHT22;35602;44.534;18.696;2023-06-14T05:09:29;24.40;64.30
49711;DHT22;35602;44.534;18.696;2023-06-14T05:14:30;24.40;64.20
49711;DHT22;35602;44.534;18.696;2023-06-14T05:19:31;24.40;64.20
49711;DHT22;35602;44.534;18.696;2023-06-14T05:24:32;24.40;64.30
49711;DHT22;35602;44.534;18.696;2023-06-14T05:29:33;24.40;64.10
49711;DHT22;35602;44.534;18.696;2023-06-14T05:34:33;24.40;64.10
49711;DHT22;35602;44.534;18.696;2023-06-14T05:39:34;24.40;64.10
49711;DHT22;35602;44.534;18.696;2023-06-14T05:44:35;24.40;64.10
49711;DHT22;35602;44.534;18.696;2023-06-14T05:49:36;24.40;64.10
49711;DHT22;35602;44.534;18.696;2023-06-14T05:54:37;24.40;64.00
49711;DHT22;35602;44.534;18.696;2023-06-14T05:59:37;24.40;64.00
49711;DHT22;35602;44.534;18.696;2023-06-14T06:04:38;24.40;64.00
49711;DHT22;35602;44.534;18.696;2023-06-14T06:09:39;24.40;64.00
49711;DHT22;35602;44.534;18.696;2023-06-14T06:14:40;24.40;64.10
49711;DHT22;35602;44.534;18.696;2023-06-14T06:19:41;24.40;63.90
49711;DHT22;35602;44.534;18.696;2023-06-14T06:24:42;24.40;64.00
49711;DHT22;35602;44.534;18.696;2023-06-14T06:29:43;24.40;64.00
49711;DHT22;35602;44.534;18.696;2023-06-14T06:34:46;24.40;64.00
49711;DHT22;35602;44.534;18.696;2023-06-14T06:39:47;24.40;64.00
49711;DHT22;35602;44.534;18.696;2023-06-14T06:44:48;24.40;64.00
49711;DHT22;35602;44.534;18.696;2023-06-14T06:49:49;24.40;64.00
49711;DHT22;35602;44.534;18.696;2023-06-14T06:54:50;24.40;64.00
49711;DHT22;35602;44.534;18.696;2023-06-14T06:59:55;24.50;63.70
49711;DHT22;35602;44.534;18.696;2023-06-14T07:04:56;24.60;63.60
49711;DHT22;35602;44.534;18.696;2023-06-14T07:09:57;24.60;63.90
49711;DHT22;35602;44.534;18.696;2023-06-14T07:14:58;24.60;63.80
49711;DHT22;35602;44.534;18.696;2023-06-14T07:19:59;24.70;63.90
49711;DHT22;35602;44.534;18.696;2023-06-14T07:25:01;24.70;63.90
49711;DHT22;35602;44.534;18.696;2023-06-14T07:30:02;24.70;64.00
49711;DHT22;35602;44.534;18.696;2023-06-14T07:35:06;24.80;64.00
49711;DHT22;35602;44.534;18.696;2023-06-14T07:40:08;24.80;64.20
49711;DHT22;35602;44.534;18.696;2023-06-14T07:45:15;24.80;64.30
49711;DHT22;35602;44.534;18.696;2023-06-14T07:50:16;24.80;64.20
49711;DHT22;35602;44.534;18.696;2023-06-14T07:55:16;24.80;65.00
49711;DHT22;35602;44.534;18.696;2023-06-14T08:00:18;24.90;64.70
49711;DHT22;35602;44.534;18.696;2023-06-14T08:05:20;24.90;64.60
49711;DHT22;35602;44.534;18.696;2023-06-14T08:10:22;24.90;64.60
49711;DHT22;35602;44.534;18.696;2023-06-14T08:15:23;24.90;64.60
49711;DHT22;35602;44.534;18.696;2023-06-14T08:20:24;24.90;64.50
49711;DHT22;35602;44.534;18.696;2023-06-14T08:25:26;25.00;64.70
49711;DHT22;35602;44.534;18.696;2023-06-14T08:30:27;25.00;64.80
49711;DHT22;35602;44.534;18.696;2023-06-14T08:35:28;24.90;64.90
49711;DHT22;35602;44.534;18.696;2023-06-14T08:40:30;24.90;65.00
49711;DHT22;35602;44.534;18.696;2023-06-14T08:45:31;24.90;65.30
49711;DHT22;35602;44.534;18.696;2023-06-14T08:50:32;25.00;65.30
49711;DHT22;35602;44.534;18.696;2023-06-14T08:55:35;24.90;65.40
49711;DHT22;35602;44.534;18.696;2023-06-14T09:00:38;25.00;65.50
49711;DHT22;35602;44.534;18.696;2023-06-14T09:05:42;25.00;65.60
49711;DHT22;35602;44.534;18.696;2023-06-14T09:10:44;25.00;65.50
49711;DHT22;35602;44.534;18.696;2023-06-14T09:15:45;24.90;65.60
49711;DHT22;35602;44.534;18.696;2023-06-14T09:20:46;24.90;65.70
49711;DHT22;35602;44.534;18.696;2023-06-14T09:25:48;24.80;65.80
49711;DHT22;35602;44.534;18.696;2023-06-14T09:30:49;24.80;65.70
49711;DHT22;35602;44.534;18.696;2023-06-14T09:35:54;24.80;65.80
49711;DHT22;35602;44.534;18.696;2023-06-14T09:40:58;24.80;65.80
49711;DHT22;35602;44.534;18.696;2023-06-14T09:46:00;24.80;66.40
49711;DHT22;35602;44.534;18.696;2023-06-14T09:51:04;24.80;65.80
49711;DHT22;35602;44.534;18.696;2023-06-14T09:56:06;24.80;65.80
49711;DHT22;35602;44.534;18.696;2023-06-14T10:01:09;24.80;65.80
49711;DHT22;35602;44.534;18.696;2023-06-14T10:06:10;24.80;65.70
49711;DHT22;35602;44.534;18.696;2023-06-14T10:11:13;24.80;65.70
49711;DHT22;35602;44.534;18.696;2023-06-14T10:16:23;24.80;65.60
49711;DHT22;35602;44.534;18.696;2023-06-14T10:22:01;24.80;65.60
49711;DHT22;35602;44.534;18.696;2023-06-14T10:27:06;24.80;65.60
49711;DHT22;35602;44.534;18.696;2023-06-14T10:32:10;24.80;65.60
49711;DHT22;35602;44.534;18.696;2023-06-14T10:37:13;24.80;65.60
49711;DHT22;35602;44.534;18.696;2023-06-14T10:42:15;24.80;65.60
49711;DHT22;35602;44.534;18.696;2023-06-14T10:47:27;24.80;65.60
49711;DHT22;35602;44.534;18.696;2023-06-14T10:52:33;24.80;65.50
49711;DHT22;35602;44.534;18.696;2023-06-14T10:57:37;24.80;65.50
49711;DHT22;35602;44.534;18.696;2023-06-14T11:03:21;24.80;65.50
49711;DHT22;35602;44.534;18.696;2023-06-14T11:17:03;24.80;65.40
49711;DHT22;35602;44.534;18.696;2023-06-14T11:22:05;24.90;65.30
49711;DHT22;35602;44.534;18.696;2023-06-14T11:27:06;24.90;65.30
49711;DHT22;35602;44.534;18.696;2023-06-14T11:32:07;25.00;65.70
49711;DHT22;35602;44.534;18.696;2023-06-14T11:37:12;24.90;65.40
49711;DHT22;35602;44.534;18.696;2023-06-14T11:42:15;24.90;65.70
49711;DHT22;35602;44.534;18.696;2023-06-14T11:47:17;24.90;65.80
49711;DHT22;35602;44.534;18.696;2023-06-14T11:52:18;24.90;65.80
49711;DHT22;35602;44.534;18.696;2023-06-14T11:57:19;24.80;65.80
49711;DHT22;35602;44.534;18.696;2023-06-14T12:02:21;24.90;65.90
49711;DHT22;35602;44.534;18.696;2023-06-14T12:07:22;24.80;65.80
49711;DHT22;35602;44.534;18.696;2023-06-14T12:12:26;24.80;65.80
49711;DHT22;35602;44.534;18.696;2023-06-14T12:17:32;24.90;65.90
49711;DHT22;35602;44.534;18.696;2023-06-14T12:22:33;24.80;65.80
49711;DHT22;35602;44.534;18.696;2023-06-14T12:27:34;24.90;65.90
49711;DHT22;35602;44.534;18.696;2023-06-14T12:32:38;24.80;65.80
49711;DHT22;35602;44.534;18.696;2023-06-14T12:37:39;24.80;65.80
49711;DHT22;35602;44.534;18.696;2023-06-14T12:42:40;24.80;65.90
49711;DHT22;35602;44.534;18.696;2023-06-14T12:47:41;24.80;65.80
49711;DHT22;35602;44.534;18.696;2023-06-14T12:52:43;24.90;65.90
49711;DHT22;35602;44.534;18.696;2023-06-14T12:57:43;24.90;65.80
49711;DHT22;35602;44.534;18.696;2023-06-14T13:02:44;24.90;65.40
49711;DHT22;35602;44.534;18.696;2023-06-14T13:07:45;25.00;65.50
49711;DHT22;35602;44.534;18.696;2023-06-14T13:12:46;25.20;65.80
49711;DHT22;35602;44.534;18.696;2023-06-14T13:17:50;25.10;65.80
49711;DHT22;35602;44.534;18.696;2023-06-14T13:22:51;24.90;65.60
49711;DHT22;35602;44.534;18.696;2023-06-14T13:27:52;24.90;66.20
49711;DHT22;35602;44.534;18.696;2023-06-14T13:32:52;24.80;66.20
49711;DHT22;35602;44.534;18.696;2023-06-14T13:37:56;24.80;66.30
49711;DHT22;35602;44.534;18.696;2023-06-14T13:42:57;24.80;66.40
49711;DHT22;35602;44.534;18.696;2023-06-14T13:47:58;24.80;66.50
49711;DHT22;35602;44.534;18.696;2023-06-14T13:52:58;24.80;66.40
49711;DHT22;35602;44.534;18.696;2023-06-14T13:57:59;24.80;66.50
49711;DHT22;35602;44.534;18.696;2023-06-14T14:03:00;24.80;66.50
49711;DHT22;35602;44.534;18.696;2023-06-14T14:08:01;24.70;66.50
49711;DHT22;35602;44.534;18.696;2023-06-14T14:13:02;24.80;66.70
49711;DHT22;35602;44.534;18.696;2023-06-14T14:18:06;24.70;66.60
49711;DHT22;35602;44.534;18.696;2023-06-14T14:23:07;24.70;66.50
49711;DHT22;35602;44.534;18.696;2023-06-14T14:28:08;24.70;66.50
49711;DHT22;35602;44.534;18.696;2023-06-14T14:33:09;24.80;66.60
49711;DHT22;35602;44.534;18.696;2023-06-14T14:38:13;24.80;66.60
49711;DHT22;35602;44.534;18.696;2023-06-14T14:43:14;24.70;66.50
49711;DHT22;35602;44.534;18.696;2023-06-14T14:48:15;24.70;66.60
49711;DHT22;35602;44.534;18.696;2023-06-14T14:53:16;24.70;66.60
49711;DHT22;35602;44.534;18.696;2023-06-14T14:58:17;24.70;66.50
49711;DHT22;35602;44.534;18.696;2023-06-14T15:03:18;24.70;66.50
49711;DHT22;35602;44.534;18.696;2023-06-14T15:08:20;24.70;66.60
49711;DHT22;35602;44.534;18.696;2023-06-14T15:13:21;24.70;66.50
49711;DHT22;35602;44.534;18.696;2023-06-14T15:18:23;24.70;66.50
49711;DHT22;35602;44.534;18.696;2023-06-14T15:23:24;24.70;66.50
49711;DHT22;35602;44.534;18.696;2023-06-14T15:28:25;24.70;66.50
49711;DHT22;35602;44.534;18.696;2023-06-14T15:33:29;24.70;66.60
49711;DHT22;35602;44.534;18.696;2023-06-14T15:38:30;24.70;66.50
49711;DHT22;35602;44.534;18.696;2023-06-14T15:43:31;24.70;66.50
49711;DHT22;35602;44.534;18.696;2023-06-14T15:48:31;24.70;66.50
49711;DHT22;35602;44.534;18.696;2023-06-14T15:53:32;24.70;66.50
49711;DHT22;35602;44.534;18.696;2023-06-14T15:58:35;24.70;66.50
49711;DHT22;35602;44.534;18.696;2023-06-14T16:03:35;24.70;66.50
49711;DHT22;35602;44.534;18.696;2023-06-14T16:08:36;24.70;66.50
49711;DHT22;35602;44.534;18.696;2023-06-14T16:13:39;24.70;66.40
49711;DHT22;35602;44.534;18.696;2023-06-14T16:18:40;24.70;66.40
49711;DHT22;35602;44.534;18.696;2023-06-14T16:23:42;24.70;66.50
49711;DHT22;35602;44.534;18.696;2023-06-14T16:28:43;24.70;66.40
49711;DHT22;35602;44.534;18.696;2023-06-14T16:33:44;24.70;66.40
49711;DHT22;35602;44.534;18.696;2023-06-14T16:38:48;24.70;66.40
49711;DHT22;35602;44.534;18.696;2023-06-14T16:43:49;24.70;66.40
49711;DHT22;35602;44.534;18.696;2023-06-14T16:48:50;24.70;66.30
49711;DHT22;35602;44.534;18.696;2023-06-14T16:53:52;24.60;66.30
49711;DHT22;35602;44.534;18.696;2023-06-14T16:58:57;24.70;66.30
49711;DHT22;35602;44.534;18.696;2023-06-14T17:03:58;24.70;66.30
49711;DHT22;35602;44.534;18.696;2023-06-14T17:08:59;24.70;66.30
49711;DHT22;35602;44.534;18.696;2023-06-14T17:14:00;24.70;66.30
49711;DHT22;35602;44.534;18.696;2023-06-14T17:19:00;24.70;66.20
49711;DHT22;35602;44.534;18.696;2023-06-14T17:24:05;24.70;66.20
49711;DHT22;35602;44.534;18.696;2023-06-14T17:29:06;24.70;66.20
49711;DHT22;35602;44.534;18.696;2023-06-14T17:34:06;24.70;66.20
49711;DHT22;35602;44.534;18.696;2023-06-14T17:39:10;24.70;66.20
49711;DHT22;35602;44.534;18.696;2023-06-14T17:44:12;24.70;66.30
49711;DHT22;35602;44.534;18.696;2023-06-14T17:49:13;24.70;66.20
49711;DHT22;35602;44.534;18.696;2023-06-14T17:54:13;24.70;66.30
49711;DHT22;35602;44.534;18.696;2023-06-14T17:59:15;24.70;66.30
49711;DHT22;35602;44.534;18.696;2023-06-14T18:04:16;24.70;66.30
49711;DHT22;35602;44.534;18.696;2023-06-14T18:09:17;24.70;66.30
49711;DHT22;35602;44.534;18.696;2023-06-14T18:14:18;24.60;66.30
49711;DHT22;35602;44.534;18.696;2023-06-14T18:19:19;24.70;66.30
49711;DHT22;35602;44.534;18.696;2023-06-14T18:24:20;24.70;66.20
49711;DHT22;35602;44.534;18.696;2023-06-14T18:29:21;24.70;66.30
49711;DHT22;35602;44.534;18.696;2023-06-14T18:34:22;24.70;66.30
49711;DHT22;35602;44.534;18.696;2023-06-14T18:39:23;24.70;66.90
49711;DHT22;35602;44.534;18.696;2023-06-14T18:44:24;24.70;66.30
49711;DHT22;35602;44.534;18.696;2023-06-14T18:49:25;24.70;66.30
49711;DHT22;35602;44.534;18.696;2023-06-14T18:54:26;24.70;66.30
49711;DHT22;35602;44.534;18.696;2023-06-14T18:59:27;24.70;66.40
49711;DHT22;35602;44.534;18.696;2023-06-14T19:04:28;24.70;66.30
49711;DHT22;35602;44.534;18.696;2023-06-14T19:09:32;24.70;66.40
49711;DHT22;35602;44.534;18.696;2023-06-14T19:14:32;24.70;66.40
49711;DHT22;35602;44.534;18.696;2023-06-14T19:19:34;24.70;66.40
49711;DHT22;35602;44.534;18.696;2023-06-14T19:24:34;24.70;66.40
49711;DHT22;35602;44.534;18.696;2023-06-14T19:29:35;24.70;66.40
49711;DHT22;35602;44.534;18.696;2023-06-14T19:34:36;24.60;66.30
49711;DHT22;35602;44.534;18.696;2023-06-14T19:39:45;24.60;66.40
49711;DHT22;35602;44.534;18.696;2023-06-14T19:44:46;24.70;66.40
49711;DHT22;35602;44.534;18.696;2023-06-14T19:49:47;24.70;66.40
49711;DHT22;35602;44.534;18.696;2023-06-14T19:54:48;24.70;66.50
49711;DHT22;35602;44.534;18.696;2023-06-14T19:59:49;24.70;66.50
49711;DHT22;35602;44.534;18.696;2023-06-14T20:04:50;24.70;66.50
49711;DHT22;35602;44.534;18.696;2023-06-14T20:09:51;24.60;66.40
49711;DHT22;35602;44.534;18.696;2023-06-14T20:14:51;24.70;66.50
49711;DHT22;35602;44.534;18.696;2023-06-14T20:19:52;24.70;66.50
49711;DHT22;35602;44.534;18.696;2023-06-14T20:24:53;24.70;66.50
49711;DHT22;35602;44.534;18.696;2023-06-14T20:29:54;24.70;66.50
49711;DHT22;35602;44.534;18.696;2023-06-14T20:34:56;24.60;66.50
49711;DHT22;35602;44.534;18.696;2023-06-14T20:39:56;24.60;66.40
49711;DHT22;35602;44.534;18.696;2023-06-14T20:45:04;24.60;66.50
49711;DHT22;35602;44.534;18.696;2023-06-14T20:50:07;24.60;66.50
49711;DHT22;35602;44.534;18.696;2023-06-14T20:55:11;24.60;66.50
49711;DHT22;35602;44.534;18.696;2023-06-14T21:00:13;24.60;66.50
49711;DHT22;35602;44.534;18.696;2023-06-14T21:05:14;24.60;66.50
49711;DHT22;35602;44.534;18.696;2023-06-14T21:10:15;24.60;66.50
49711;DHT22;35602;44.534;18.696;2023-06-14T21:15:16;24.60;66.50
49711;DHT22;35602;44.534;18.696;2023-06-14T21:20:17;24.60;66.50
49711;DHT22;35602;44.534;18.696;2023-06-14T21:25:18;24.60;66.40
49711;DHT22;35602;44.534;18.696;2023-06-14T21:30:31;24.60;66.50
49711;DHT22;35602;44.534;18.696;2023-06-14T21:35:33;24.60;66.50
49711;DHT22;35602;44.534;18.696;2023-06-14T21:40:34;24.60;66.50
49711;DHT22;35602;44.534;18.696;2023-06-14T21:45:35;24.60;66.50
49711;DHT22;35602;44.534;18.696;2023-06-14T21:50:36;24.60;66.50
49711;DHT22;35602;44.534;18.696;2023-06-14T21:55:37;24.60;66.40
49711;DHT22;35602;44.534;18.696;2023-06-14T22:00:39;24.60;66.40
49711;DHT22;35602;44.534;18.696;2023-06-14T22:05:40;24.60;66.40
49711;DHT22;35602;44.534;18.696;2023-06-14T22:10:42;24.60;66.40
49711;DHT22;35602;44.534;18.696;2023-06-14T22:15:44;24.60;66.40
49711;DHT22;35602;44.534;18.696;2023-06-14T22:20:45;24.60;66.40
49711;DHT22;35602;44.534;18.696;2023-06-14T22:25:47;24.60;66.40
49711;DHT22;35602;44.534;18.696;2023-06-14T22:30:48;24.60;66.40
49711;DHT22;35602;44.534;18.696;2023-06-14T22:35:49;24.60;66.30
49711;DHT22;35602;44.534;18.696;2023-06-14T22:40:50;24.60;66.40
49711;DHT22;35602;44.534;18.696;2023-06-14T22:45:51;24.60;66.30
49711;DHT22;35602;44.534;18.696;2023-06-14T22:50:52;24.60;66.30
49711;DHT22;35602;44.534;18.696;2023-06-14T22:55:52;24.60;66.30
49711;DHT22;35602;44.534;18.696;2023-06-14T23:00:53;24.60;66.30
49711;DHT22;35602;44.534;18.696;2023-06-14T23:05:54;24.60;66.30
49711;DHT22;35602;44.534;18.696;2023-06-14T23:10:59;24.60;66.30
49711;DHT22;35602;44.534;18.696;2023-06-14T23:16:02;24.60;66.30
49711;DHT22;35602;44.534;18.696;2023-06-14T23:21:03;24.60;66.30
49711;DHT22;35602;44.534;18.696;2023-06-14T23:26:06;24.60;66.30
49711;DHT22;35602;44.534;18.696;2023-06-14T23:31:07;24.60;66.30
49711;DHT22;35602;44.534;18.696;2023-06-14T23:36:08;24.60;66.30
49711;DHT22;35602;44.534;18.696;2023-06-14T23:41:10;24.60;66.40
49711;DHT22;35602;44.534;18.696;2023-06-14T23:46:11;24.50;66.20
49711;DHT22;35602;44.534;18.696;2023-06-14T23:51:12;24.60;66.30
49711;DHT22;35602;44.534;18.696;2023-06-14T23:56:13;24.60;66.20
